Time;durP1;ratioP1;P1;durP2;ratioP2;P2;SDS_P1;SDS_P2;PMS_P1;PMS_P2;Temp;Humidity;BMP_temperature;BMP_pressure;BME280_temperature;BME280_humidity;BME280_pressure;Samples;Min_cycle;Max_cycle;Signal;HPM_P1;HPM_P2
2021/11/27 00:01:28;;;;;;;3.47;2.70;;;;;;;-2.29;69.55;100306.69;4878095;29;20309;-70
2021/11/27 00:03:54;;;;;;;2.73;2.53;;;;;;;-2.33;69.43;100309.56;4861069;29;20300;-68
2021/11/27 00:06:24;;;;;;;2.57;2.37;;;;;;;-2.41;69.95;100283.09;4878707;29;20278;-69
2021/11/27 00:08:50;;;;;;;3.07;2.60;;;;;;;-2.44;70.01;100286.72;4878470;29;20044;-71
2021/11/27 00:11:16;;;;;;;3.10;2.60;;;;;;;-2.25;70.37;100320.38;4878387;29;20344;-68
2021/11/27 00:13:42;;;;;;;3.90;2.93;;;;;;;-2.37;69.65;100301.06;4861737;29;20041;-68
2021/11/27 00:16:09;;;;;;;4.33;2.60;;;;;;;-2.19;69.66;100315.63;4878241;29;20305;-70
2021/11/27 00:18:37;;;;;;;3.00;2.70;;;;;;;-2.15;70.11;100326.72;4861630;29;20416;-66
2021/11/27 00:21:20;;;;;;;3.42;2.65;;;;;;;-2.17;70.03;100312.94;4878115;29;20074;-68
2021/11/27 00:23:50;;;;;;;3.57;2.53;;;;;;;-2.06;70.25;100320.94;4861749;29;20093;-69
2021/11/27 00:26:16;;;;;;;4.20;2.37;;;;;;;-2.06;70.41;100304.44;4861789;29;20718;-69
2021/11/27 00:28:43;;;;;;;3.13;2.87;;;;;;;-2.14;70.03;100301.47;4861498;29;20298;-67
2021/11/27 00:31:26;;;;;;;4.63;2.70;;;;;;;-2.76;69.83;100215.66;4862858;29;20744;-68
2021/11/27 00:33:57;;;;;;;3.50;2.93;;;;;;;-2.52;70.86;100275.94;4878123;29;20641;-67
2021/11/27 00:36:24;;;;;;;3.30;2.60;;;;;;;-2.29;71.41;100339.75;4861857;29;20805;-69
2021/11/27 00:38:53;;;;;;;7.23;3.03;;;;;;;-2.34;71.11;100326.97;4878527;29;20266;-70
2021/11/27 00:41:35;;;;;;;4.77;2.90;;;;;;;-2.50;71.22;100305.34;4878930;29;20280;-70
2021/11/27 00:44:09;;;;;;;2.75;2.50;;;;;;;-2.47;71.29;100315.59;4861822;29;20282;-69
2021/11/27 00:46:34;;;;;;;3.30;3.00;;;;;;;-2.26;70.76;100345.63;4880220;29;20088;-68
2021/11/27 00:49:00;;;;;;;4.43;3.20;;;;;;;-2.40;70.87;100343.00;4882322;29;20674;-69
2021/11/27 00:51:29;;;;;;;4.13;3.10;;;;;;;-2.42;71.23;100339.63;4882441;29;20044;-71
2021/11/27 00:53:55;;;;;;;;;;;;;;;-2.31;71.30;100342.47;4864323;29;20073;-69
2021/11/27 00:56:24;;;;;;;3.67;3.07;;;;;;;-2.44;71.55;100328.47;4881943;29;19970;-69
2021/11/27 00:58:53;;;;;;;2.97;2.67;;;;;;;-2.41;71.56;100317.00;4882165;29;20041;-68
2021/11/27 01:01:32;;;;;;;4.03;3.27;;;;;;;-2.32;70.99;100335.53;4884881;29;20301;-68
2021/11/27 01:04:05;;;;;;;4.28;2.92;;;;;;;-2.41;70.72;100323.06;4882693;29;20293;-67
2021/11/27 01:06:34;;;;;;;5.07;2.77;;;;;;;-2.42;70.27;100324.00;4866117;29;20048;-68
2021/11/27 01:09:18;;;;;;;3.60;3.17;;;;;;;-2.29;69.94;100351.03;4881174;29;20612;-67
2021/11/27 01:11:49;;;;;;;4.00;3.10;;;;;;;-2.26;68.87;100356.06;4882253;29;20036;-68
2021/11/27 01:14:27;;;;;;;3.60;3.00;;;;;;;-2.39;70.04;100329.03;4881708;29;20276;-70
2021/11/27 01:17:05;;;;;;;3.30;3.00;;;;;;;-2.39;68.96;100344.66;4881408;29;20289;-69
2021/11/27 01:19:39;;;;;;;5.57;3.40;;;;;;;-2.27;69.37;100370.03;4881584;29;20270;-69
2021/11/27 01:22:18;;;;;;;3.83;3.23;;;;;;;-2.56;69.34;100313.56;4865444;29;20365;-68
2021/11/27 01:24:45;;;;;;;3.83;2.43;;;;;;;-2.39;68.63;100349.88;4881684;29;20294;-69
2021/11/27 01:27:11;;;;;;;4.67;3.40;;;;;;;-2.42;69.24;100354.44;4881615;29;20734;-68
2021/11/27 01:29:41;;;;;;;4.57;3.60;;;;;;;-2.30;69.54;100365.00;4883051;29;20273;-68
2021/11/27 01:32:13;;;;;;;2.73;2.53;;;;;;;-2.40;68.75;100348.19;4883380;29;20380;-67
2021/11/27 01:34:47;;;;;;;3.67;3.37;;;;;;;-2.41;68.24;100349.13;4867043;29;20412;-72
2021/11/27 01:37:19;;;;;;;3.80;3.37;;;;;;;-2.41;68.38;100349.13;4865259;29;20285;-67
2021/11/27 01:39:50;;;;;;;2.87;2.63;;;;;;;-2.58;68.68;100323.22;4864467;29;20281;-69
2021/11/27 01:42:16;;;;;;;3.20;2.70;;;;;;;-2.78;69.84;100295.72;4880692;29;20790;-66
2021/11/27 01:44:42;;;;;;;3.37;2.90;;;;;;;-2.55;68.96;100323.88;4864066;29;20289;-68
2021/11/27 01:47:11;;;;;;;3.87;3.10;;;;;;;-2.35;68.96;100356.59;4880835;29;20037;-68
2021/11/27 01:49:39;;;;;;;4.23;3.10;;;;;;;-2.49;68.62;100335.72;4880889;29;20037;-67
2021/11/27 01:52:06;;;;;;;3.93;2.80;;;;;;;-2.41;69.39;100351.75;4863528;29;20325;-67
2021/11/27 01:54:34;;;;;;;3.23;2.47;;;;;;;-3.04;69.11;100260.75;4880539;29;20036;-67
2021/11/27 01:57:08;;;;;;;3.15;2.67;;;;;;;-2.54;69.30;100361.22;4879961;29;20278;-67
2021/11/27 01:59:43;;;;;;;3.73;2.77;;;;;;;-3.46;69.09;100228.41;4878587;29;20045;-67
2021/11/27 02:02:14;;;;;;;3.20;2.60;;;;;;;-2.67;69.04;100352.41;4881179;29;20282;-70
2021/11/27 02:04:40;;;;;;;3.57;2.60;;;;;;;-2.83;70.23;100350.72;4881749;29;20381;-68
2021/11/27 02:07:06;;;;;;;3.03;2.67;;;;;;;-2.74;69.65;100356.31;4880607;29;20268;-69
2021/11/27 02:09:34;;;;;;;3.97;3.28;;;;;;;-2.75;70.37;100347.66;4880249;29;20305;-69
2021/11/27 02:12:02;;;;;;;5.35;3.10;;;;;;;-2.77;70.21;100364.31;4880540;29;20033;-69
2021/11/27 02:14:27;;;;;;;3.57;2.97;;;;;;;-3.03;70.52;100337.13;4880179;29;20045;-68
2021/11/27 02:16:54;;;;;;;4.00;3.30;;;;;;;-2.92;70.96;100366.84;4880183;29;20834;-68
2021/11/27 02:19:20;;;;;;;3.63;2.77;;;;;;;-2.87;71.45;100372.66;4880274;29;20068;-68
2021/11/27 02:21:49;;;;;;;5.97;4.00;;;;;;;-2.99;71.59;100344.69;4880057;29;20277;-68
2021/11/27 02:24:18;;;;;;;6.38;3.33;;;;;;;-2.92;70.73;100352.97;4879994;29;20265;-69
2021/11/27 02:26:45;;;;;;;3.75;3.05;;;;;;;-2.93;70.92;100356.50;4879985;29;20550;-70
2021/11/27 02:29:33;;;;;;;5.82;3.85;;;;;;;-2.90;71.41;100369.38;4879006;29;20037;-67
2021/11/27 02:32:16;;;;;;;3.93;3.27;;;;;;;-2.99;71.35;100368.13;4856850;29;20473;-68
2021/11/27 02:34:42;;;;;;;4.28;3.83;;;;;;;-3.24;71.36;100319.16;4880141;29;20304;-67
2021/11/27 02:37:08;;;;;;;4.37;3.03;;;;;;;-3.17;71.55;100338.75;4880008;29;20079;-67
2021/11/27 02:39:37;;;;;;;3.23;2.77;;;;;;;-2.93;72.06;100379.97;4863244;29;20309;-69
2021/11/27 02:42:05;;;;;;;3.75;2.92;;;;;;;-2.93;72.11;100369.53;4863219;29;20037;-67
2021/11/27 02:44:36;;;;;;;5.32;2.65;;;;;;;-2.93;71.88;100364.31;4879385;29;20571;-68
2021/11/27 02:47:08;;;;;;;6.20;3.17;;;;;;;-2.90;71.60;100369.38;4879687;29;20041;-68
2021/11/27 02:49:37;;;;;;;4.55;2.92;;;;;;;-2.93;72.00;100365.16;4879652;29;20348;-71
2021/11/27 02:52:05;;;;;;;3.95;3.10;;;;;;;-3.03;71.91;100369.22;4862909;29;20033;-68
2021/11/27 02:54:40;;;;;;;3.47;3.00;;;;;;;-2.90;72.04;100375.41;4879858;29;20041;-67
2021/11/27 02:57:06;;;;;;;4.13;3.27;;;;;;;-2.77;72.31;100379.94;4879410;29;20273;-67
2021/11/27 02:59:38;;;;;;;3.37;2.33;;;;;;;-2.71;71.21;100385.66;4879144;29;20277;-69
2021/11/27 03:02:06;;;;;;;5.13;2.70;;;;;;;-3.58;71.08;100262.94;4861765;29;20054;-68
2021/11/27 03:04:55;;;;;;;5.35;4.93;;;;;;;-2.97;71.06;100378.47;4860989;29;20049;-68
2021/11/27 03:07:20;;;;;;;;;;;;;;;-2.79;71.19;100397.44;4859752;29;20035;-69
2021/11/27 03:09:55;;;;;;;3.13;2.60;;;;;;;-2.88;70.68;100391.81;4860534;29;19927;-68
2021/11/27 03:12:20;;;;;;;4.43;2.60;;;;;;;-2.94;70.65;100399.97;4859900;29;20120;-68
2021/11/27 03:14:55;;;;;;;4.03;2.60;;;;;;;-3.04;70.64;100388.38;4844345;29;20128;-69
2021/11/27 03:17:24;;;;;;;4.27;3.20;;;;;;;-3.19;70.98;100373.59;4860973;29;20045;-69
2021/11/27 03:19:55;;;;;;;3.43;2.53;;;;;;;-3.13;70.16;100388.91;4860699;29;20699;-69
2021/11/27 03:22:21;;;;;;;4.18;2.30;;;;;;;-3.14;70.78;100387.22;4860532;29;20049;-68
2021/11/27 03:24:47;;;;;;;3.13;2.83;;;;;;;-3.01;70.62;100413.44;4861477;29;20518;-68
2021/11/27 03:27:14;;;;;;;3.33;2.73;;;;;;;-4.07;69.63;100270.78;4863684;29;20045;-67
2021/11/27 03:29:42;;;;;;;3.28;2.80;;;;;;;-3.25;71.18;100411.25;4862988;29;20096;-68
2021/11/27 03:32:19;;;;;;;2.95;2.60;;;;;;;-3.12;71.15;100427.06;4846153;29;20044;-67
2021/11/27 03:34:47;;;;;;;3.30;2.80;;;;;;;-3.22;70.84;100402.41;4846457;29;20561;-65
2021/11/27 03:37:29;;;;;;;3.53;3.10;;;;;;;-3.07;70.25;100440.66;4860685;29;20517;-68
2021/11/27 03:39:54;;;;;;;3.35;2.58;;;;;;;-3.14;70.51;100423.69;4856841;29;20033;-68
2021/11/27 03:42:20;;;;;;;3.90;3.00;;;;;;;-3.41;69.87;100367.91;4860870;29;20398;-67
2021/11/27 03:44:47;;;;;;;6.37;3.70;;;;;;;-3.46;69.60;100374.22;4861012;29;20037;-69
2021/11/27 03:47:14;;;;;;;4.20;2.90;;;;;;;-3.56;69.91;100362.59;4860295;29;20044;-68
2021/11/27 03:49:40;;;;;;;4.95;3.85;;;;;;;-3.06;70.29;100437.13;4860386;29;20033;-66
2021/11/27 03:52:06;;;;;;;2.83;2.63;;;;;;;-3.21;69.87;100428.38;4860432;29;20040;-68
2021/11/27 03:54:31;;;;;;;6.10;2.97;;;;;;;-3.36;69.86;100407.53;4860016;29;20058;-67
2021/11/27 03:56:57;;;;;;;3.43;2.73;;;;;;;-3.15;69.62;100451.50;4859423;29;20045;-68
2021/11/27 03:59:23;;;;;;;4.17;3.27;;;;;;;-3.27;69.85;100438.28;4859775;29;20049;-67
2021/11/27 04:01:54;;;;;;;4.53;2.97;;;;;;;-3.17;69.73;100450.75;4875442;29;20055;-67
2021/11/27 04:04:20;;;;;;;4.35;3.13;;;;;;;-3.09;69.35;100465.97;4878658;29;20053;-67
2021/11/27 04:06:46;;;;;;;4.07;3.00;;;;;;;-3.15;69.83;100467.13;4878816;29;20130;-66
2021/11/27 04:09:13;;;;;;;3.83;2.95;;;;;;;-3.45;70.03;100409.72;4878540;29;20045;-67
2021/11/27 04:11:40;;;;;;;4.40;3.50;;;;;;;-3.06;70.87;100449.31;4878157;29;20041;-67
2021/11/27 04:14:07;;;;;;;5.60;4.13;;;;;;;-2.97;68.78;100462.66;4861773;29;20044;-66
2021/11/27 04:16:32;;;;;;;3.85;2.83;;;;;;;-3.01;69.88;100455.94;4877686;29;20399;-67
2021/11/27 04:18:58;;;;;;;6.60;3.17;;;;;;;-2.96;69.57;100464.34;4878053;29;20037;-67
2021/11/27 04:21:24;;;;;;;3.00;2.70;;;;;;;-3.30;69.82;100412.41;4880307;29;20049;-67
2021/11/27 04:23:58;;;;;;;5.63;2.97;;;;;;;-3.08;69.92;100456.38;4881730;29;20041;-68
2021/11/27 04:26:24;;;;;;;5.80;3.10;;;;;;;-2.93;68.82;100479.81;4881750;29;20043;-68
2021/11/27 04:28:52;;;;;;;3.20;2.80;;;;;;;-3.28;69.14;100442.66;4881820;29;20041;-68
2021/11/27 04:31:18;;;;;;;5.07;3.00;;;;;;;-3.27;69.70;100464.34;4881425;29;20489;-71
2021/11/27 04:33:48;;;;;;;2.83;2.53;;;;;;;-3.13;69.99;100493.09;4881930;29;20417;-69
2021/11/27 04:36:14;;;;;;;4.07;2.97;;;;;;;-3.24;69.49;100471.97;4881872;29;20045;-66
2021/11/27 04:38:40;;;;;;;6.95;3.50;;;;;;;-3.09;69.39;100494.63;4881314;29;20400;-67
2021/11/27 04:41:07;;;;;;;7.22;2.92;;;;;;;-3.05;69.35;100501.34;4881524;29;20045;-68
2021/11/27 04:43:32;;;;;;;11.20;3.20;;;;;;;-3.10;69.84;100497.31;4881265;29;20037;-68
2021/11/27 04:45:58;;;;;;;5.97;3.97;;;;;;;-3.17;69.86;100502.00;4864643;29;20170;-66
2021/11/27 04:48:24;;;;;;;4.47;3.37;;;;;;;-3.24;70.33;100485.00;4881602;29;20048;-66
2021/11/27 04:50:50;;;;;;;6.53;3.10;;;;;;;-3.11;70.32;100506.88;4881177;29;20043;-68
2021/11/27 04:53:16;;;;;;;8.13;3.40;;;;;;;-3.32;70.64;100461.97;4881402;29;20405;-67
2021/11/27 04:55:42;;;;;;;6.00;3.83;;;;;;;-3.08;69.91;100504.09;4882199;29;20032;-66
2021/11/27 04:58:12;;;;;;;6.60;3.60;;;;;;;-3.18;69.93;100508.09;4882753;29;20277;-69
2021/11/27 05:04:45;;;;;;;5.50;4.28;;;;;;;-4.12;71.12;100345.63;4786343;29;20062;-69
2021/11/27 05:11:20;;;;;;;4.97;3.42;;;;;;;-3.31;70.71;100474.06;4806617;29;20279;-69
2021/11/27 05:17:16;;;;;;;7.40;3.35;;;;;;;-3.14;70.64;100514.88;4859686;29;20056;-65
2021/11/27 05:19:42;;;;;;;4.73;3.33;;;;;;;-3.76;70.90;100426.13;4863294;29;20033;-66
2021/11/27 05:22:09;;;;;;;4.28;3.28;;;;;;;-3.49;70.91;100481.06;4862256;29;20060;-66
2021/11/27 05:24:53;;;;;;;4.17;3.30;;;;;;;-3.33;71.52;100521.94;4862520;29;20038;-68
2021/11/27 05:27:21;;;;;;;5.32;3.95;;;;;;;-3.91;71.43;100426.06;4817011;29;20136;-68
2021/11/27 05:40:17;;;;;;;6.28;3.83;;;;;;;-3.91;72.15;100442.53;4849719;29;20421;-69
2021/11/27 05:43:50;;;;;;;4.97;3.65;;;;;;;-3.78;72.57;100480.00;4862147;29;20044;-67
2021/11/27 05:49:43;;;;;;;6.28;3.97;;;;;;;-3.61;73.39;100519.94;4782549;29;20054;-66
2021/11/27 05:52:09;;;;;;;11.00;5.33;;;;;;;-3.73;73.54;100502.34;4844990;29;20557;-66
2021/11/27 05:55:07;;;;;;;5.30;4.60;;;;;;;-3.63;73.41;100525.22;4829110;29;20144;-67
2021/11/27 05:57:33;;;;;;;6.33;3.70;;;;;;;-3.68;73.31;100522.00;4856659;29;20274;-65
2021/11/27 06:00:29;;;;;;;6.23;4.27;;;;;;;-3.62;73.54;100521.69;4864241;29;20285;-68
2021/11/27 06:03:39;;;;;;;5.25;3.78;;;;;;;-3.73;73.43;100512.78;4862504;29;20075;-67
2021/11/27 06:06:11;;;;;;;5.53;3.35;;;;;;;-3.69;73.61;100535.94;4788753;30;20059;-69
2021/11/27 06:08:37;;;;;;;9.57;3.85;;;;;;;-3.84;73.80;100510.69;4853613;29;20524;-67
2021/11/27 06:11:02;;;;;;;4.50;3.37;;;;;;;-3.90;74.22;100516.22;4861262;29;20037;-67
2021/11/27 06:13:28;;;;;;;7.70;4.10;;;;;;;-4.03;74.38;100499.53;4860496;29;20041;-68
2021/11/27 06:15:54;;;;;;;6.10;3.47;;;;;;;-3.97;74.61;100517.44;4861755;29;20098;-66
2021/11/27 06:18:19;;;;;;;9.77;4.27;;;;;;;-4.02;75.02;100512.47;4845164;29;20041;-69
2021/11/27 06:20:48;;;;;;;6.80;3.97;;;;;;;-3.94;74.38;100531.13;4861719;29;20494;-70
2021/11/27 06:23:40;;;;;;;4.45;3.28;;;;;;;-4.09;74.83;100527.50;4861422;29;20225;-67
2021/11/27 06:29:36;;;;;;;4.95;3.88;;;;;;;-4.14;75.20;100531.25;4858947;29;20069;-67
2021/11/27 06:32:08;;;;;;;15.37;4.30;;;;;;;-4.18;74.82;100535.78;4860861;29;20071;-67
2021/11/27 06:34:34;;;;;;;5.40;3.88;;;;;;;-4.23;75.35;100522.16;4861155;29;20041;-66
2021/11/27 06:36:59;;;;;;;6.70;4.87;;;;;;;-4.51;75.46;100477.63;4860450;29;20045;-69
2021/11/27 06:39:25;;;;;;;5.00;4.33;;;;;;;-4.23;75.64;100527.38;4860544;29;20037;-66
2021/11/27 06:41:50;;;;;;;5.10;3.83;;;;;;;-4.21;75.11;100532.47;4860659;29;20037;-66
2021/11/27 06:44:16;;;;;;;6.37;3.93;;;;;;;-4.23;75.27;100542.97;4859769;29;20049;-66
2021/11/27 06:46:41;;;;;;;6.27;4.70;;;;;;;-4.24;76.30;100536.06;4860435;29;20037;-65
2021/11/27 06:49:07;;;;;;;5.60;4.20;;;;;;;-4.34;75.13;100515.78;4860626;29;20046;-68
2021/11/27 06:51:33;;;;;;;6.40;3.97;;;;;;;-4.31;75.77;100521.69;4860403;29;20029;-66
2021/11/27 06:53:58;;;;;;;5.67;3.90;;;;;;;-4.39;75.68;100505.59;4844615;29;20066;-69
2021/11/27 06:56:24;;;;;;;7.43;4.03;;;;;;;-4.17;75.12;100539.22;4860052;29;20053;-65
2021/11/27 06:58:50;;;;;;;5.60;3.97;;;;;;;-4.21;75.49;100522.94;4860162;29;20041;-66
2021/11/27 07:01:16;;;;;;;5.00;4.47;;;;;;;-4.34;75.25;100501.03;4859271;29;20106;-67
2021/11/27 07:04:07;;;;;;;8.38;4.40;;;;;;;-4.09;74.83;100527.50;4848235;29;20210;-67
2021/11/27 07:06:33;;;;;;;8.23;5.63;;;;;;;-4.07;74.79;100530.88;4824383;29;20574;-69
2021/11/27 07:08:58;;;;;;;8.60;5.60;;;;;;;-4.74;75.19;100429.34;4830547;29;20038;-67
2021/11/27 07:11:24;;;;;;;10.63;7.17;;;;;;;-4.15;75.55;100522.63;4829296;29;20069;-70
2021/11/27 07:13:49;;;;;;;14.40;7.80;;;;;;;-4.11;75.49;100539.75;4806895;29;20038;-67
2021/11/27 07:16:15;;;;;;;12.37;6.90;;;;;;;-4.07;74.62;100536.06;4823217;29;20042;-67
2021/11/27 07:18:41;;;;;;;17.33;7.00;;;;;;;-4.03;75.22;100546.38;4823556;29;20042;-65
2021/11/27 07:21:06;;;;;;;12.63;7.33;;;;;;;-4.08;75.00;100518.78;4823843;29;20046;-67
2021/11/27 07:23:32;;;;;;;9.13;6.37;;;;;;;-4.12;75.07;100506.88;4824956;29;20085;-71
2021/11/27 07:25:57;;;;;;;18.70;5.90;;;;;;;-4.02;75.06;100522.88;4825081;29;20034;-68
2021/11/27 07:28:23;;;;;;;6.73;5.47;;;;;;;-4.10;74.83;100519.78;4824632;29;20035;-67
2021/11/27 07:30:49;;;;;;;6.97;5.37;;;;;;;-4.07;75.37;100527.44;4823853;29;20042;-70
2021/11/27 07:33:15;;;;;;;6.67;4.70;;;;;;;-4.09;75.11;100532.72;4823567;29;20375;-67
2021/11/27 07:35:40;;;;;;;6.27;4.73;;;;;;;-4.08;74.78;100542.19;4823360;29;20050;-70
2021/11/27 07:38:06;;;;;;;6.20;4.97;;;;;;;-4.23;75.45;100503.13;4823474;29;20084;-69
2021/11/27 07:40:32;;;;;;;6.87;5.23;;;;;;;-4.22;74.59;100510.84;4806730;29;20037;-68
2021/11/27 07:42:58;;;;;;;8.40;5.27;;;;;;;-4.17;75.24;100524.44;4806472;29;20078;-67
2021/11/27 07:45:24;;;;;;;10.00;5.25;;;;;;;-4.32;75.74;100493.19;4823268;29;20512;-66
2021/11/27 07:47:49;;;;;;;8.70;4.70;;;;;;;-4.15;75.87;100535.63;4823340;29;20089;-64
2021/11/27 07:50:15;;;;;;;5.50;4.80;;;;;;;-4.34;75.66;100505.38;4823229;29;20175;-71
2021/11/27 07:52:43;;;;;;;11.87;6.83;;;;;;;-4.19;76.36;100547.09;4823139;29;20120;-67
2021/11/27 07:55:10;;;;;;;6.03;4.97;;;;;;;-4.20;75.80;100545.41;4822061;29;20050;-66
2021/11/27 07:57:35;;;;;;;8.40;5.47;;;;;;;-4.30;76.22;100520.78;4823291;29;20534;-71
2021/11/27 08:00:06;;;;;;;10.07;7.10;;;;;;;-4.52;75.72;100486.34;4822939;29;20038;-70
2021/11/27 08:02:31;;;;;;;7.20;5.03;;;;;;;-4.29;76.01;100525.06;4823309;29;20129;-69
2021/11/27 08:05:00;;;;;;;8.10;5.23;;;;;;;-4.26;75.19;100530.13;4823012;29;20392;-71
2021/11/27 08:07:25;;;;;;;8.20;5.50;;;;;;;-4.22;75.31;100526.44;4822941;29;20034;-72
2021/11/27 08:09:51;;;;;;;7.47;5.10;;;;;;;-4.16;75.21;100536.53;4822776;29;20573;-70
2021/11/27 08:12:17;;;;;;;6.63;5.20;;;;;;;-4.22;74.97;100530.81;4823029;29;20034;-69
2021/11/27 08:14:42;;;;;;;10.40;5.13;;;;;;;-4.32;75.78;100530.41;4822677;29;20043;-69
2021/11/27 08:17:08;;;;;;;6.83;5.03;;;;;;;-4.26;75.16;100555.28;4823017;29;20069;-72
2021/11/27 08:19:36;;;;;;;11.07;5.27;;;;;;;-4.36;75.63;100539.25;4822789;29;20054;-74
2021/11/27 08:22:02;;;;;;;6.85;5.70;;;;;;;-4.58;75.62;100497.03;4822614;29;20042;-67
2021/11/27 08:24:28;;;;;;;10.57;6.27;;;;;;;-4.27;75.63;100554.44;4822416;29;20191;-67
2021/11/27 08:26:54;;;;;;;6.33;5.37;;;;;;;-4.25;75.81;100551.75;4822206;29;20098;-68
2021/11/27 08:29:19;;;;;;;7.55;5.88;;;;;;;-4.33;75.43;100531.34;4822571;29;20125;-71
2021/11/27 08:31:47;;;;;;;8.23;6.47;;;;;;;-4.33;75.88;100543.50;4822579;29;20592;-72
2021/11/27 08:34:16;;;;;;;8.90;5.53;;;;;;;-4.19;75.40;100552.28;4822680;29;20411;-70
2021/11/27 08:36:42;;;;;;;7.72;5.45;;;;;;;-4.16;75.08;100546.94;4822277;29;20053;-69
2021/11/27 08:39:11;;;;;;;7.87;5.47;;;;;;;-4.09;74.98;100561.31;4822561;29;20039;-71
2021/11/27 08:41:36;;;;;;;;;;;;;;;-3.99;74.15;100553.09;4823024;29;20479;-70
2021/11/27 08:44:02;;;;;;;8.33;5.73;;;;;;;-4.16;74.66;100522.69;4822890;29;19927;-69
2021/11/27 08:46:29;;;;;;;6.40;5.45;;;;;;;-4.12;74.13;100532.03;4791165;29;20059;-72
2021/11/27 08:48:55;;;;;;;11.10;5.30;;;;;;;-4.18;74.83;100514.97;4822522;29;20129;-70
2021/11/27 08:51:20;;;;;;;5.87;4.73;;;;;;;-4.10;74.81;100531.03;4822372;29;20125;-69
2021/11/27 08:53:46;;;;;;;10.70;6.63;;;;;;;-4.02;74.44;100528.06;4822293;29;20049;-66
2021/11/27 08:56:12;;;;;;;8.33;5.57;;;;;;;-3.90;74.23;100552.63;4806048;29;20129;-65
2021/11/27 08:58:39;;;;;;;10.07;5.87;;;;;;;-3.99;74.44;100532.28;4822061;29;20050;-66
2021/11/27 09:01:07;;;;;;;6.85;5.38;;;;;;;-3.95;73.73;100528.59;4831470;29;20148;-66
2021/11/27 09:03:33;;;;;;;11.82;7.75;;;;;;;-3.90;73.69;100530.06;4824258;29;20042;-68
2021/11/27 09:06:00;;;;;;;15.13;7.43;;;;;;;-4.00;74.28;100512.41;4840474;29;20041;-70
2021/11/27 09:08:27;;;;;;;7.28;5.50;;;;;;;-4.07;73.66;100509.22;4844078;29;20248;-66
2021/11/27 09:10:53;;;;;;;10.43;6.57;;;;;;;-3.95;73.68;100537.25;4843990;29;20041;-68
2021/11/27 09:13:19;;;;;;;8.20;6.00;;;;;;;-4.04;74.47;100518.66;4844364;29;20387;-65
2021/11/27 09:15:45;;;;;;;13.27;7.40;;;;;;;-4.00;74.36;100521.03;4842955;29;20094;-66
2021/11/27 09:18:11;;;;;;;11.73;7.53;;;;;;;-3.95;74.04;100523.41;4844639;29;20037;-67
2021/11/27 09:20:38;;;;;;;10.73;7.30;;;;;;;-3.88;74.68;100524.78;4844722;29;20040;-62
2021/11/27 09:23:05;;;;;;;13.38;6.85;;;;;;;-3.83;73.80;100522.78;4844389;29;20038;-62
2021/11/27 09:25:33;;;;;;;8.23;5.82;;;;;;;-3.79;73.27;100519.94;4844392;29;20089;-66
2021/11/27 09:27:59;;;;;;;10.93;5.47;;;;;;;-4.09;73.69;100453.84;4844873;29;20206;-70
2021/11/27 09:30:29;;;;;;;12.15;5.95;;;;;;;-3.77;73.17;100501.66;4845055;29;20049;-63
2021/11/27 09:32:56;;;;;;;9.27;6.07;;;;;;;-3.63;73.27;100524.38;4844461;29;20046;-61
2021/11/27 09:35:22;;;;;;;8.88;4.95;;;;;;;-3.74;73.50;100496.31;4843747;29;20038;-58
2021/11/27 09:37:49;;;;;;;8.95;5.82;;;;;;;-3.82;72.73;100482.81;4842807;29;20034;-61
2021/11/27 09:40:15;;;;;;;7.90;4.97;;;;;;;-3.73;73.51;100502.34;4843264;29;20044;-61
2021/11/27 09:42:41;;;;;;;7.22;4.72;;;;;;;-3.63;73.29;100519.16;4843296;29;20064;-62
2021/11/27 09:45:08;;;;;;;6.50;5.15;;;;;;;-3.62;73.58;100516.50;4843313;29;20065;-62
2021/11/27 09:47:35;;;;;;;8.55;6.55;;;;;;;-3.56;73.85;100510.97;4842711;29;20459;-62
2021/11/27 09:50:04;;;;;;;9.20;5.68;;;;;;;-3.55;73.14;100512.66;4842689;29;20045;-60
2021/11/27 09:52:30;;;;;;;13.65;4.95;;;;;;;-3.51;72.69;100516.75;4843075;29;20133;-64
2021/11/27 09:54:56;;;;;;;8.93;4.13;;;;;;;-3.54;72.09;100506.53;4826232;29;20509;-65
2021/11/27 09:57:23;;;;;;;5.57;4.30;;;;;;;-3.46;72.09;100517.41;4841482;29;20038;-66
2021/11/27 09:59:49;;;;;;;6.97;4.32;;;;;;;-3.61;72.22;100484.34;4825891;29;20498;-65
2021/11/27 10:02:18;;;;;;;5.37;4.13;;;;;;;-3.43;71.90;100500.78;4840960;29;20062;-66
2021/11/27 10:04:53;;;;;;;9.00;4.95;;;;;;;-3.26;71.68;100507.69;4842033;29;20110;-66
2021/11/27 10:07:20;;;;;;;9.40;5.05;;;;;;;-3.17;71.12;100517.63;4842625;29;20494;-70
2021/11/27 10:09:47;;;;;;;6.38;3.78;;;;;;;-3.21;70.42;100516.09;4826206;29;20042;-68
2021/11/27 10:12:13;;;;;;;4.53;3.70;;;;;;;-3.03;70.39;100520.31;4841397;29;20049;-67
2021/11/27 10:14:41;;;;;;;5.35;3.97;;;;;;;-2.99;70.45;100516.63;4842357;29;20038;-67
2021/11/27 10:17:17;;;;;;;4.57;4.00;;;;;;;-3.01;70.11;100508.06;4842447;29;20086;-67
2021/11/27 10:19:43;;;;;;;6.28;4.53;;;;;;;-2.99;69.80;100501.00;4841793;29;20038;-68
2021/11/27 10:22:11;;;;;;;6.40;3.73;;;;;;;-2.96;69.65;100513.84;4842644;29;20545;-66
2021/11/27 10:24:38;;;;;;;18.90;4.20;;;;;;;-3.28;70.28;100444.41;4842416;29;20058;-70
2021/11/27 10:27:20;;;;;;;4.60;3.78;;;;;;;-3.03;70.05;100478.66;4841969;29;20054;-68
2021/11/27 10:30:05;;;;;;;3.92;3.33;;;;;;;-2.90;68.66;100497.03;4841695;29;20124;-68
2021/11/27 10:32:36;;;;;;;6.20;3.40;;;;;;;-2.93;69.66;100498.06;4842472;29;20046;-67
2021/11/27 10:35:05;;;;;;;4.65;3.10;;;;;;;-2.87;69.26;100515.97;4842205;29;20042;-68
2021/11/27 10:37:37;;;;;;;5.35;3.80;;;;;;;-2.89;69.31;100490.91;4844017;29;20037;-66
2021/11/27 10:40:03;;;;;;;5.40;4.00;;;;;;;-2.82;69.45;100506.16;4844210;29;20046;-68
2021/11/27 10:42:29;;;;;;;8.33;3.70;;;;;;;-2.89;69.84;100483.97;4841017;29;20045;-67
2021/11/27 10:44:56;;;;;;;4.45;3.33;;;;;;;-2.80;69.47;100495.63;4842246;29;20494;-67
2021/11/27 10:47:22;;;;;;;9.02;3.42;;;;;;;-2.92;68.84;100478.88;4842159;29;20080;-69
2021/11/27 10:49:49;;;;;;;3.78;3.17;;;;;;;-2.85;69.49;100490.69;4841985;29;20038;-67
2021/11/27 10:52:18;;;;;;;2.97;2.78;;;;;;;-2.81;68.90;100489.59;4841861;29;20049;-68
2021/11/27 10:54:48;;;;;;;4.93;3.53;;;;;;;-2.74;68.91;100484.03;4842032;29;20089;-68
2021/11/27 10:57:29;;;;;;;4.15;3.30;;;;;;;-2.71;69.01;100489.06;4825634;29;20077;-67
2021/11/27 11:00:10;;;;;;;6.88;3.58;;;;;;;-2.98;69.00;100429.72;4841999;29;20046;-67
2021/11/27 11:02:38;;;;;;;6.05;3.30;;;;;;;-2.76;69.33;100472.84;4842018;29;20042;-67
2021/11/27 11:05:12;;;;;;;10.30;4.13;;;;;;;-2.85;68.90;100455.97;4841864;29;20082;-67
2021/11/27 11:07:40;;;;;;;6.53;4.45;;;;;;;-2.69;69.38;100467.19;4842039;29;20507;-66
2021/11/27 11:10:14;;;;;;;5.95;3.72;;;;;;;-2.65;68.92;100467.88;4841785;29;20034;-69
2021/11/27 11:12:52;;;;;;;8.43;4.07;;;;;;;-2.63;68.73;100460.78;4841472;29;20042;-68
2021/11/27 11:15:21;;;;;;;5.72;3.55;;;;;;;-2.63;67.94;100452.97;4841208;29;20049;-69
2021/11/27 11:17:49;;;;;;;9.20;3.47;;;;;;;-2.61;68.45;100458.94;4825204;29;20086;-66
2021/11/27 11:20:18;;;;;;;5.85;3.03;;;;;;;-2.53;68.42;100477.63;4841838;29;20084;-68
2021/11/27 11:22:58;;;;;;;5.20;2.92;;;;;;;-2.53;68.44;100477.63;4841772;29;20503;-65
2021/11/27 11:25:24;;;;;;;5.88;3.33;;;;;;;-2.65;67.56;100447.00;4825212;29;20046;-67
2021/11/27 11:27:51;;;;;;;5.80;3.55;;;;;;;-2.49;66.68;100473.91;4841305;29;20141;-67
2021/11/27 11:30:21;;;;;;;5.77;3.13;;;;;;;-2.50;66.79;100441.78;4841307;29;20117;-67
2021/11/27 11:32:47;;;;;;;10.25;3.28;;;;;;;-2.51;67.01;100439.25;4841787;29;20041;-68
2021/11/27 11:35:14;;;;;;;5.33;2.63;;;;;;;-2.44;66.63;100437.13;4841110;29;20387;-66
2021/11/27 11:37:39;;;;;;;8.23;2.50;;;;;;;-2.32;66.78;100460.72;4841319;29;20037;-68
2021/11/27 11:40:06;;;;;;;4.00;2.90;;;;;;;-2.37;66.93;100449.72;4841246;29;20034;-67
2021/11/27 11:42:32;;;;;;;5.00;2.78;;;;;;;-2.29;67.17;100446.72;4841021;29;20460;-68
2021/11/27 11:44:58;;;;;;;4.60;3.20;;;;;;;-2.36;67.42;100427.94;4841843;29;20061;-68
2021/11/27 11:47:24;;;;;;;8.03;2.93;;;;;;;-2.29;67.15;100434.50;4824945;29;20373;-62
2021/11/27 11:50:11;;;;;;;8.32;3.10;;;;;;;-2.67;67.57;100370.66;4841220;29;20045;-67
2021/11/27 11:53:35;;;;;;;3.45;2.92;;;;;;;-2.17;67.61;100439.91;4840998;29;20074;-69
2021/11/27 11:56:04;;;;;;;4.93;3.38;;;;;;;-2.22;67.49;100435.81;4816843;29;20148;-68
2021/11/27 11:58:37;;;;;;;8.02;3.53;;;;;;;-2.29;67.37;100444.94;4840968;29;20041;-69
2021/11/27 12:01:14;;;;;;;5.53;3.42;;;;;;;-2.43;67.03;100417.97;4831942;29;20078;-68
2021/11/27 12:03:41;;;;;;;7.38;2.55;;;;;;;-2.37;67.35;100431.47;4822755;29;20065;-67